Time;durP1;ratioP1;P1;durP2;ratioP2;P2;SDS_P1;SDS_P2;PMS_P1;PMS_P2;Temp;Humidity;BMP_temperature;BMP_pressure;BME280_temperature;BME280_humidity;BME280_pressure;Samples;Min_cycle;Max_cycle;Signal;HPM_P1;HPM_P2
2023/02/14 00:01:07;;;;;;;35.60;19.75;;;1.70;99.90;;;;;;5016029;28;20093;-84
2023/02/14 00:03:33;;;;;;;37.25;20.92;;;1.60;99.90;;;;;;5014900;28;20033;-82
2023/02/14 00:06:04;;;;;;;40.22;20.95;;;1.60;99.90;;;;;;5015821;28;20034;-83
2023/02/14 00:08:30;;;;;;;40.63;22.37;;;1.60;99.90;;;;;;5016137;28;20379;-83
2023/02/14 00:10:56;;;;;;;36.58;20.08;;;1.60;99.90;;;;;;5015009;28;20034;-85
2023/02/14 00:13:22;;;;;;;38.00;20.88;;;1.60;99.90;;;;;;5015073;28;20026;-84
2023/02/14 00:15:48;;;;;;;35.90;18.27;;;1.60;99.90;;;;;;5015327;28;20030;-82
2023/02/14 00:18:13;;;;;;;31.83;19.05;;;1.60;99.90;;;;;;5015576;28;20057;-81
2023/02/14 00:20:40;;;;;;;39.83;20.27;;;1.60;99.90;;;;;;5013524;28;20117;-84
2023/02/14 00:23:05;;;;;;;38.30;20.17;;;1.70;99.90;;;;;;5013913;28;20057;-85
2023/02/14 00:25:33;;;;;;;32.25;19.20;;;1.70;99.90;;;;;;5013879;28;20025;-85
2023/02/14 00:27:59;;;;;;;33.65;17.83;;;1.70;99.90;;;;;;5015330;28;20022;-84
2023/02/14 00:30:24;;;;;;;40.58;19.60;;;1.70;99.90;;;;;;5013991;28;20395;-84
2023/02/14 00:32:50;;;;;;;35.63;18.50;;;1.60;99.90;;;;;;5014540;28;20479;-84
2023/02/14 00:35:16;;;;;;;39.90;19.30;;;1.70;99.90;;;;;;5013936;28;20487;-85
2023/02/14 00:37:42;;;;;;;35.92;17.63;;;1.70;99.90;;;;;;5015136;28;20096;-85
2023/02/14 00:40:08;;;;;;;114.25;52.20;;;1.70;99.90;;;;;;5015003;28;20053;-85
2023/02/14 00:42:34;;;;;;;91.18;40.30;;;1.70;99.90;;;;;;5014826;28;20058;-83
2023/02/14 00:44:59;;;;;;;60.35;28.00;;;1.70;99.90;;;;;;5014267;28;20106;-85
2023/02/14 00:47:25;;;;;;;60.28;28.35;;;1.70;99.90;;;;;;5013438;28;20037;-83
2023/02/14 00:49:51;;;;;;;124.95;58.38;;;1.70;99.90;;;;;;5014781;28;20022;-85
2023/02/14 00:52:17;;;;;;;63.40;30.15;;;1.70;99.90;;;;;;5013460;28;20453;-85
2023/02/14 00:54:42;;;;;;;38.67;19.08;;;1.70;99.90;;;;;;5014461;28;20482;-85
2023/02/14 00:57:08;;;;;;;36.45;20.35;;;1.70;99.90;;;;;;5014836;28;20033;-85
2023/02/14 00:59:34;;;;;;;36.63;19.55;;;1.70;99.90;;;;;;5013486;28;20117;-82
2023/02/14 01:02:00;;;;;;;40.97;21.30;;;1.70;99.90;;;;;;5015037;28;20057;-82
2023/02/14 01:04:25;;;;;;;35.25;19.10;;;1.60;99.90;;;;;;5013361;28;20018;-82
2023/02/14 01:06:51;;;;;;;32.90;18.70;;;1.60;99.90;;;;;;5014587;28;20095;-82
2023/02/14 01:09:17;;;;;;;33.22;18.20;;;1.60;99.90;;;;;;5012676;28;20026;-82
2023/02/14 01:11:42;;;;;;;36.08;18.25;;;1.60;99.90;;;;;;5014609;28;20055;-82
2023/02/14 01:14:08;;;;;;;35.13;18.83;;;1.60;99.90;;;;;;5012438;28;20022;-83
2023/02/14 01:16:35;;;;;;;41.55;21.95;;;1.60;99.90;;;;;;5012326;28;20057;-83
2023/02/14 01:19:01;;;;;;;45.60;23.75;;;1.60;99.90;;;;;;5014426;28;20479;-82
2023/02/14 01:21:32;;;;;;;43.83;21.33;;;1.60;99.90;;;;;;5014245;28;20410;-85
2023/02/14 01:24:00;;;;;;;37.03;19.90;;;1.60;99.90;;;;;;5013098;28;20022;-84
2023/02/14 01:26:27;;;;;;;32.53;18.17;;;1.60;99.90;;;;;;5014168;28;20033;-83
2023/02/14 01:28:53;;;;;;;36.70;18.50;;;1.60;99.90;;;;;;5014092;28;20022;-83
2023/02/14 01:31:22;;;;;;;32.85;17.02;;;1.60;99.90;;;;;;5012836;28;20391;-83
2023/02/14 01:33:49;;;;;;;35.83;19.80;;;1.60;99.90;;;;;;5013015;28;20037;-85
2023/02/14 01:36:24;;;;;;;33.20;18.27;;;1.60;99.90;;;;;;5012565;28;20018;-85
2023/02/14 01:38:51;;;;;;;31.75;17.00;;;1.60;99.90;;;;;;5028839;28;20021;-86
2023/02/14 01:41:17;;;;;;;30.48;16.85;;;1.70;99.90;;;;;;5013582;28;20070;-87
2023/02/14 01:43:56;;;;;;;34.17;19.30;;;1.60;99.90;;;;;;5013922;28;20034;-84
2023/02/14 01:46:23;;;;;;;38.72;18.70;;;1.60;99.90;;;;;;5014159;28;20025;-83
2023/02/14 01:48:51;;;;;;;32.83;17.23;;;1.60;99.90;;;;;;5013871;28;20386;-85
2023/02/14 01:51:18;;;;;;;40.92;19.55;;;1.60;99.90;;;;;;5013705;28;20041;-81
2023/02/14 01:53:44;;;;;;;36.95;19.73;;;1.60;99.90;;;;;;5013730;28;20030;-81
2023/02/14 01:56:13;;;;;;;46.67;24.92;;;1.70;99.90;;;;;;5012336;28;20463;-82
2023/02/14 01:58:43;;;;;;;41.50;20.20;;;1.70;99.90;;;;;;5013319;28;20038;-81
2023/02/14 02:01:11;;;;;;;39.20;19.65;;;1.70;99.90;;;;;;5013957;28;20018;-82
2023/02/14 02:03:50;;;;;;;32.40;17.55;;;1.60;99.90;;;;;;5012278;28;20072;-82
2023/02/14 02:06:22;;;;;;;44.63;23.23;;;1.60;99.90;;;;;;5013588;28;20029;-85
2023/02/14 02:09:17;;;;;;;42.92;24.20;;;1.60;99.90;;;;;;5011413;28;20076;-82
2023/02/14 02:11:43;;;;;;;35.20;18.90;;;1.60;99.90;;;;;;5013418;28;20030;-85
2023/02/14 02:14:14;;;;;;;36.80;19.83;;;1.60;99.90;;;;;;5013298;28;20514;-82
2023/02/14 02:17:10;;;;;;;40.88;17.98;;;1.60;99.90;;;;;;5013531;28;20072;-82
2023/02/14 02:20:14;;;;;;;32.42;18.20;;;1.60;99.90;;;;;;5012345;28;20038;-84
2023/02/14 02:22:50;;;;;;;43.97;24.48;;;1.60;99.90;;;;;;5012146;28;20030;-82
2023/02/14 02:25:24;;;;;;;41.88;21.23;;;1.60;99.90;;;;;;5013132;28;20033;-82
2023/02/14 02:27:59;;;;;;;29.52;16.88;;;1.60;99.90;;;;;;5012701;28;20018;-82
2023/02/14 02:30:56;;;;;;;32.92;16.05;;;1.70;99.90;;;;;;5012053;28;20394;-82
2023/02/14 02:33:44;;;;;;;30.92;17.88;;;1.60;99.90;;;;;;5030023;28;20140;-85
2023/02/14 02:36:32;;;;;;;32.45;18.65;;;1.60;99.90;;;;;;5031509;28;20071;-85
2023/02/14 02:39:31;;;;;;;31.88;17.83;;;1.60;99.90;;;;;;5032977;28;20467;-82
2023/02/14 02:42:15;;;;;;;27.60;15.57;;;1.60;99.90;;;;;;5032821;28;20053;-79
2023/02/14 02:44:49;;;;;;;31.77;18.20;;;1.50;99.90;;;;;;5033450;28;20030;-79
2023/02/14 02:47:45;;;;;;;32.78;17.60;;;1.50;99.90;;;;;;5033012;28;20080;-79
2023/02/14 02:53:37;;;;;;;32.63;17.63;;;1.50;99.90;;;;;;5033314;28;20444;-79
2023/02/14 02:59:17;;;;;;;31.08;16.13;;;1.50;99.90;;;;;;5032927;28;20048;-80
2023/02/14 03:02:06;;;;;;;28.15;15.27;;;1.40;99.90;;;;;;5031389;28;20028;-80
2023/02/14 03:04:52;;;;;;;31.30;17.00;;;1.50;99.90;;;;;;5025872;28;20376;-80
2023/02/14 03:07:39;;;;;;;31.10;16.85;;;1.50;99.90;;;;;;5031667;28;20028;-81
2023/02/14 03:10:23;;;;;;;33.13;16.55;;;1.50;99.90;;;;;;5030887;28;20376;-85
2023/02/14 03:13:14;;;;;;;34.80;17.67;;;1.50;99.90;;;;;;5033156;28;20029;-81
2023/02/14 03:16:04;;;;;;;30.02;16.90;;;1.50;99.90;;;;;;5032198;28;20026;-82
2023/02/14 03:18:48;;;;;;;31.40;17.90;;;1.40;99.90;;;;;;5032448;28;20466;-82
2023/02/14 03:21:56;;;;;;;30.65;15.18;;;1.50;99.90;;;;;;5031273;28;20075;-82
2023/02/14 03:24:28;;;;;;;34.53;18.70;;;1.50;99.90;;;;;;4991350;28;20030;-81
2023/02/14 03:27:04;;;;;;;31.77;16.73;;;1.50;99.90;;;;;;5021387;28;20394;-82
2023/02/14 03:30:13;;;;;;;32.00;18.50;;;1.50;99.90;;;;;;5030724;28;20051;-82
2023/02/14 03:33:10;;;;;;;26.58;16.52;;;1.50;99.90;;;;;;4998932;28;20045;-82
2023/02/14 03:36:08;;;;;;;34.17;18.40;;;1.50;99.90;;;;;;5028125;28;20048;-82
2023/02/14 03:38:49;;;;;;;57.55;28.67;;;1.50;99.90;;;;;;5033983;28;20022;-81
2023/02/14 03:41:23;;;;;;;33.90;16.85;;;1.50;99.90;;;;;;5033528;28;20049;-82
2023/02/14 03:43:54;;;;;;;41.72;21.75;;;1.50;99.90;;;;;;5034460;28;20021;-81
2023/02/14 03:46:29;;;;;;;31.55;16.67;;;1.50;99.90;;;;;;5034774;28;20430;-81
2023/02/14 03:48:57;;;;;;;31.08;16.40;;;1.50;99.90;;;;;;5036050;28;20029;-81
2023/02/14 03:51:27;;;;;;;31.08;16.52;;;1.50;99.90;;;;;;5032757;28;20034;-80
2023/02/14 03:53:56;;;;;;;31.98;17.00;;;1.50;99.90;;;;;;5016142;28;20380;-81
2023/02/14 03:56:33;;;;;;;28.25;16.02;;;1.50;99.90;;;;;;5014597;28;20026;-83
2023/02/14 03:59:05;;;;;;;31.77;15.18;;;1.50;99.90;;;;;;5015930;28;20383;-82
2023/02/14 04:01:36;;;;;;;26.00;13.70;;;1.50;99.90;;;;;;5015922;28;20040;-82
2023/02/14 04:04:04;;;;;;;27.48;14.93;;;1.50;99.90;;;;;;5014497;28;20026;-83
2023/02/14 04:06:30;;;;;;;28.85;15.95;;;1.50;99.90;;;;;;5014334;28;20030;-82
2023/02/14 04:08:55;;;;;;;30.55;16.55;;;1.50;99.90;;;;;;5015406;28;20022;-80
2023/02/14 04:11:21;;;;;;;31.05;14.93;;;1.60;99.90;;;;;;5015240;28;20484;-80
2023/02/14 04:13:47;;;;;;;31.65;16.70;;;1.50;99.90;;;;;;5014986;28;20026;-83
2023/02/14 04:16:12;;;;;;;31.00;16.40;;;1.50;99.90;;;;;;5015496;28;20033;-82
2023/02/14 04:21:22;;;;;;;28.58;15.45;;;1.50;99.90;;;;;;5015942;28;20104;-78
2023/02/14 04:23:48;;;;;;;28.90;16.70;;;1.50;99.90;;;;;;5015623;28;20045;-79
2023/02/14 04:26:13;;;;;;;27.15;15.57;;;1.50;99.90;;;;;;5015744;28;20486;-78
2023/02/14 04:28:39;;;;;;;33.50;15.82;;;1.50;99.90;;;;;;5015474;28;20490;-80
2023/02/14 04:31:05;;;;;;;25.88;14.52;;;1.50;99.90;;;;;;5014092;28;20035;-78
2023/02/14 04:33:32;;;;;;;26.58;14.98;;;1.50;99.90;;;;;;5015048;28;20022;-83
2023/02/14 04:35:58;;;;;;;27.20;14.90;;;1.50;99.90;;;;;;5014542;28;20029;-84
2023/02/14 04:38:24;;;;;;;25.10;14.30;;;1.50;99.90;;;;;;5013839;28;20467;-83
2023/02/14 04:40:51;;;;;;;25.35;14.52;;;1.50;99.90;;;;;;5015241;28;20078;-82
2023/02/14 04:43:17;;;;;;;26.45;14.73;;;1.50;99.90;;;;;;5015205;28;20490;-82
2023/02/14 04:45:43;;;;;;;26.02;14.23;;;1.50;99.90;;;;;;5015302;28;20037;-82
2023/02/14 04:48:09;;;;;;;27.63;14.32;;;1.50;99.90;;;;;;5014859;28;20026;-81
2023/02/14 04:50:35;;;;;;;28.17;15.20;;;1.50;99.90;;;;;;5015050;28;20030;-82
2023/02/14 04:53:01;;;;;;;26.10;15.48;;;1.50;99.90;;;;;;5013473;28;20484;-82
2023/02/14 04:55:26;;;;;;;28.88;15.43;;;1.50;99.90;;;;;;5014896;28;20041;-82
2023/02/14 04:57:52;;;;;;;25.13;14.13;;;1.50;99.90;;;;;;5013120;28;20084;-82
2023/02/14 05:00:18;;;;;;;27.65;13.93;;;1.40;99.90;;;;;;5015005;28;20021;-82
2023/02/14 05:02:44;;;;;;;24.65;15.43;;;1.40;99.90;;;;;;5014594;28;20037;-82
2023/02/14 05:05:10;;;;;;;28.92;16.13;;;1.50;99.90;;;;;;5014695;28;20022;-82
2023/02/14 05:07:36;;;;;;;27.40;14.98;;;1.50;99.90;;;;;;5014616;28;20097;-82
2023/02/14 05:10:03;;;;;;;24.80;14.00;;;1.50;99.90;;;;;;5014793;28;20022;-82
2023/02/14 05:12:29;;;;;;;29.33;14.45;;;1.40;99.90;;;;;;5014497;28;20065;-82
2023/02/14 05:14:56;;;;;;;24.27;14.85;;;1.40;99.90;;;;;;5014744;28;20026;-83
2023/02/14 05:17:22;;;;;;;29.40;15.88;;;1.40;99.90;;;;;;5014279;28;20105;-82
2023/02/14 05:19:48;;;;;;;23.85;14.15;;;1.40;99.90;;;;;;5012620;28;20030;-83
2023/02/14 05:22:14;;;;;;;24.95;14.25;;;1.40;99.90;;;;;;5013017;28;20052;-83
2023/02/14 05:24:39;;;;;;;28.10;14.43;;;1.40;99.90;;;;;;5013723;28;20384;-85
2023/02/14 05:27:06;;;;;;;25.33;13.32;;;1.40;99.90;;;;;;5014147;28;20061;-83
2023/02/14 05:29:32;;;;;;;28.25;14.95;;;1.40;99.90;;;;;;5012313;28;20113;-84
2023/02/14 05:31:57;;;;;;;25.83;14.40;;;1.40;99.90;;;;;;5012569;28;20117;-83
2023/02/14 05:34:23;;;;;;;26.38;13.52;;;1.40;99.90;;;;;;5012712;28;20124;-80
2023/02/14 05:36:48;;;;;;;25.75;13.55;;;1.40;99.90;;;;;;5014143;28;20505;-82
2023/02/14 05:39:14;;;;;;;23.35;13.82;;;1.40;99.90;;;;;;5012844;28;20029;-81
2023/02/14 05:41:40;;;;;;;28.42;14.68;;;1.40;99.90;;;;;;5014123;28;20125;-84
2023/02/14 05:44:06;;;;;;;25.60;15.00;;;1.40;99.90;;;;;;5012586;28;20045;-83
2023/02/14 05:46:32;;;;;;;26.15;13.68;;;1.40;99.90;;;;;;5012585;28;20361;-82
2023/02/14 05:48:57;;;;;;;30.42;14.77;;;1.40;99.90;;;;;;5013805;28;20026;-81
2023/02/14 05:51:23;;;;;;;23.60;13.25;;;1.40;99.90;;;;;;5012275;28;20041;-82
2023/02/14 05:53:49;;;;;;;24.30;14.05;;;1.40;99.90;;;;;;5012476;28;20025;-81
2023/02/14 05:56:14;;;;;;;29.00;14.77;;;1.40;99.90;;;;;;5012005;28;20109;-82
2023/02/14 05:58:40;;;;;;;28.25;14.95;;;1.40;99.90;;;;;;5013526;28;20077;-82
2023/02/14 06:01:06;;;;;;;29.75;14.68;;;1.50;99.90;;;;;;5013329;28;20045;-82
2023/02/14 06:03:32;;;;;;;25.48;14.30;;;1.40;99.90;;;;;;5013747;28;20491;-81
2023/02/14 06:05:58;;;;;;;26.63;15.32;;;1.50;99.90;;;;;;5013610;28;20037;-81
2023/02/14 06:08:23;;;;;;;23.70;14.23;;;1.50;99.90;;;;;;5012035;28;20467;-81
2023/02/14 06:10:49;;;;;;;26.45;13.95;;;1.40;99.90;;;;;;5013358;28;20073;-81
2023/02/14 06:13:15;;;;;;;28.15;14.50;;;1.40;99.90;;;;;;5013346;28;20022;-81
2023/02/14 06:15:41;;;;;;;25.42;14.60;;;1.40;99.90;;;;;;5013590;28;20368;-81
2023/02/14 06:18:06;;;;;;;23.90;13.63;;;1.50;99.90;;;;;;5012338;28;20383;-80
2023/02/14 06:20:32;;;;;;;25.42;13.32;;;1.50;99.90;;;;;;5012524;28;20141;-80
2023/02/14 06:22:58;;;;;;;27.60;13.50;;;1.50;99.90;;;;;;5028599;28;20026;-81
2023/02/14 06:25:33;;;;;;;24.65;13.80;;;1.50;99.90;;;;;;5013644;28;20383;-82
2023/02/14 06:27:59;;;;;;;30.48;14.98;;;1.50;99.90;;;;;;5013521;28;20022;-83
2023/02/14 06:30:26;;;;;;;23.58;13.48;;;1.50;99.90;;;;;;5013248;28;20025;-82
2023/02/14 06:32:52;;;;;;;24.88;13.63;;;1.50;99.90;;;;;;4994602;28;20038;-83
2023/02/14 06:35:18;;;;;;;23.95;13.38;;;1.50;99.90;;;;;;5005416;28;20033;-82
2023/02/14 06:37:44;;;;;;;22.30;13.40;;;1.50;99.90;;;;;;5010246;28;20460;-83
2023/02/14 06:40:10;;;;;;;21.02;11.75;;;1.50;99.90;;;;;;5011422;28;20030;-82
2023/02/14 06:42:37;;;;;;;26.38;12.63;;;1.50;99.90;;;;;;4994678;28;20050;-82
2023/02/14 06:45:04;;;;;;;27.02;14.05;;;1.50;99.90;;;;;;5004596;28;20044;-83
2023/02/14 06:47:30;;;;;;;25.45;13.73;;;1.50;99.90;;;;;;5010499;28;20429;-82
2023/02/14 06:49:55;;;;;;;25.77;14.88;;;1.50;99.90;;;;;;5010121;28;20069;-82
2023/02/14 06:52:21;;;;;;;23.65;13.13;;;1.60;99.90;;;;;;5010295;28;20103;-82
2023/02/14 06:54:47;;;;;;;23.10;13.57;;;1.60;99.90;;;;;;5008903;28;20030;-82
2023/02/14 06:57:12;;;;;;;24.65;14.00;;;1.60;99.90;;;;;;5010336;28;20075;-81
2023/02/14 06:59:38;;;;;;;24.35;13.10;;;1.60;99.90;;;;;;5006848;28;20092;-82
2023/02/14 07:02:04;;;;;;;23.65;13.25;;;1.70;99.90;;;;;;5006016;28;20019;-81
2023/02/14 07:04:32;;;;;;;24.05;13.10;;;1.70;99.90;;;;;;5010507;28;20034;-82
2023/02/14 07:07:00;;;;;;;26.35;14.93;;;1.70;99.90;;;;;;5012221;28;20094;-81
2023/02/14 07:09:26;;;;;;;26.52;13.93;;;1.70;99.90;;;;;;5006907;28;20388;-82
2023/02/14 07:11:51;;;;;;;29.42;16.02;;;1.80;99.90;;;;;;5009612;28;20033;-82
2023/02/14 07:14:17;;;;;;;274.52;115.35;;;1.80;99.90;;;;;;5012364;28;20040;-81
2023/02/14 07:16:43;;;;;;;157.73;71.22;;;1.80;99.90;;;;;;5014537;28;20030;-81
2023/02/14 07:19:08;;;;;;;120.70;48.50;;;1.80;99.90;;;;;;5013998;28;20030;-81
2023/02/14 07:21:34;;;;;;;67.35;30.58;;;1.90;99.90;;;;;;5014585;28;20072;-81
2023/02/14 07:24:00;;;;;;;60.90;27.00;;;1.80;99.90;;;;;;5012102;28;20032;-81
2023/02/14 07:26:25;;;;;;;110.85;45.70;;;1.90;99.90;;;;;;5009857;28;20030;-81
2023/02/14 07:28:51;;;;;;;118.80;47.25;;;1.90;99.90;;;;;;4997013;28;20033;-81
2023/02/14 07:31:22;;;;;;;77.13;33.97;;;1.90;99.90;;;;;;4996766;28;20062;-80
2023/02/14 07:33:48;;;;;;;133.27;52.03;;;1.90;99.90;;;;;;4997176;28;20494;-80
2023/02/14 07:36:14;;;;;;;85.10;38.20;;;2.00;99.90;;;;;;4995624;28;20054;-81
2023/02/14 07:38:40;;;;;;;43.78;23.10;;;2.00;99.90;;;;;;4996494;28;20480;-81
2023/02/14 07:41:06;;;;;;;62.95;28.52;;;2.00;99.90;;;;;;4994452;28;20488;-81
2023/02/14 07:43:33;;;;;;;55.95;26.27;;;2.10;99.90;;;;;;4996859;28;20030;-80
2023/02/14 07:46:00;;;;;;;139.18;56.45;;;2.10;99.90;;;;;;5009877;28;20502;-81
2023/02/14 07:48:26;;;;;;;75.90;33.28;;;2.10;99.90;;;;;;5036026;28;20029;-81
2023/02/14 07:50:55;;;;;;;116.20;49.90;;;2.20;99.90;;;;;;5032889;28;20026;-80
2023/02/14 07:53:21;;;;;;;129.70;53.22;;;2.20;99.90;;;;;;5033897;28;20026;-81
2023/02/14 07:55:50;;;;;;;67.85;34.95;;;2.20;99.90;;;;;;5033732;28;20037;-81
2023/02/14 07:58:16;;;;;;;72.13;31.15;;;2.20;99.90;;;;;;5034014;28;20032;-80
2023/02/14 08:00:42;;;;;;;97.82;41.55;;;2.20;99.90;;;;;;5032320;28;20017;-80
2023/02/14 08:03:08;;;;;;;48.90;23.35;;;2.30;99.90;;;;;;5033640;28;20029;-81
2023/02/14 08:05:34;;;;;;;93.60;42.35;;;2.30;99.90;;;;;;5033443;28;20025;-80
2023/02/14 08:08:00;;;;;;;67.30;28.27;;;2.30;99.90;;;;;;5034217;28;20032;-81
2023/02/14 08:10:26;;;;;;;74.45;31.42;;;2.30;99.90;;;;;;5035487;28;20017;-81
2023/02/14 08:12:57;;;;;;;48.08;22.70;;;2.40;99.90;;;;;;5035478;28;20033;-80
2023/02/14 08:18:09;;;;;;;33.03;18.27;;;2.40;99.90;;;;;;5035901;28;20103;-81
2023/02/14 08:20:35;;;;;;;58.45;28.35;;;2.40;99.90;;;;;;5034035;28;20029;-81
2023/02/14 08:23:00;;;;;;;407.25;154.48;;;2.40;99.90;;;;;;5035246;28;20026;-80
2023/02/14 08:25:26;;;;;;;146.90;60.05;;;2.40;99.90;;;;;;5033621;28;20030;-81
2023/02/14 08:27:54;;;;;;;83.22;34.95;;;2.40;99.90;;;;;;5035289;28;20029;-81
2023/02/14 08:30:20;;;;;;;871.53;386.95;;;2.50;99.90;;;;;;5035231;28;20021;-81
2023/02/14 08:32:45;;;;;;;522.13;216.25;;;2.50;99.90;;;;;;5023546;28;20387;-81
2023/02/14 08:35:11;;;;;;;361.88;132.35;;;2.60;99.90;;;;;;5015532;28;20036;-80
2023/02/14 08:37:37;;;;;;;147.52;52.88;;;2.60;99.90;;;;;;5013809;28;20018;-81
2023/02/14 08:40:03;;;;;;;653.67;250.05;;;2.60;99.90;;;;;;5013644;28;20022;-81
2023/02/14 08:42:29;;;;;;;373.65;127.20;;;2.70;99.90;;;;;;5015284;28;20076;-81
2023/02/14 08:44:55;;;;;;;227.43;77.97;;;2.70;99.90;;;;;;5015103;28;20092;-81
2023/02/14 08:47:20;;;;;;;166.25;59.95;;;2.70;99.90;;;;;;5014710;28;20033;-81
2023/02/14 08:49:46;;;;;;;172.48;57.60;;;2.80;99.90;;;;;;5013905;28;20026;-81
2023/02/14 08:52:12;;;;;;;292.35;97.03;;;2.80;99.90;;;;;;5014969;28;20045;-81
2023/02/14 08:54:37;;;;;;;41.42;18.35;;;2.90;99.90;;;;;;5014755;28;20030;-81
2023/02/14 08:57:03;;;;;;;114.72;40.95;;;2.90;99.90;;;;;;5014562;28;20109;-81
2023/02/14 08:59:29;;;;;;;119.65;47.35;;;2.90;99.90;;;;;;5015041;28;20026;-81
2023/02/14 09:01:55;;;;;;;209.13;71.72;;;2.90;99.90;;;;;;5013633;28;20029;-81
2023/02/14 09:04:20;;;;;;;44.80;20.10;;;2.90;99.90;;;;;;5024507;28;20375;-81
2023/02/14 09:06:46;;;;;;;149.20;54.60;;;3.00;99.90;;;;;;5033321;28;20482;-80
2023/02/14 09:09:11;;;;;;;107.45;36.63;;;3.00;99.90;;;;;;5034623;28;20414;-81
2023/02/14 09:11:37;;;;;;;168.60;55.50;;;3.00;99.90;;;;;;5034539;28;20093;-81
2023/02/14 09:14:03;;;;;;;217.80;75.28;;;3.10;99.90;;;;;;5034142;28;20116;-82
2023/02/14 09:16:28;;;;;;;92.43;38.80;;;3.00;99.90;;;;;;5034211;28;20036;-81
2023/02/14 09:18:55;;;;;;;147.45;52.75;;;3.10;99.90;;;;;;5034607;28;20389;-81
2023/02/14 09:21:26;;;;;;;232.45;82.72;;;3.10;99.90;;;;;;5034129;28;20049;-81
2023/02/14 09:23:52;;;;;;;198.70;74.35;;;3.10;99.90;;;;;;5032969;28;20112;-81
2023/02/14 09:26:18;;;;;;;246.70;93.40;;;3.20;99.90;;;;;;5032599;28;20029;-81
2023/02/14 09:28:44;;;;;;;42.38;19.95;;;3.10;99.90;;;;;;5034840;28;20045;-81
2023/02/14 09:31:23;;;;;;;166.60;69.85;;;3.20;99.90;;;;;;5033798;28;20042;-81
2023/02/14 09:36:33;;;;;;;107.00;47.50;;;3.30;99.90;;;;;;5033037;28;20040;-81
2023/02/14 09:38:59;;;;;;;85.85;38.05;;;3.30;99.90;;;;;;5032704;28;20021;-81
2023/02/14 09:41:28;;;;;;;42.38;22.23;;;3.30;99.90;;;;;;5032315;28;20351;-81
2023/02/14 09:44:17;;;;;;;93.45;39.67;;;3.30;99.90;;;;;;5032564;28;20052;-81
2023/02/14 09:46:49;;;;;;;111.82;50.50;;;3.30;99.90;;;;;;5032495;28;20025;-81
2023/02/14 09:49:21;;;;;;;44.78;22.10;;;3.40;99.90;;;;;;5032557;28;20030;-81
2023/02/14 09:51:52;;;;;;;36.13;20.48;;;3.30;99.90;;;;;;5032415;28;20040;-81
2023/02/14 09:54:23;;;;;;;33.70;18.90;;;3.30;99.90;;;;;;5033719;28;20023;-81
2023/02/14 09:56:59;;;;;;;44.63;23.17;;;3.30;99.90;;;;;;4994018;28;20030;-81
2023/02/14 09:59:42;;;;;;;64.15;35.10;;;3.20;99.90;;;;;;4994218;28;20391;-80
2023/02/14 10:02:39;;;;;;;49.38;28.23;;;3.30;99.90;;;;;;4994112;28;20033;-81
2023/02/14 10:05:26;;;;;;;39.28;23.27;;;3.20;99.90;;;;;;4994076;28;20041;-81
2023/02/14 10:08:10;;;;;;;24.17;15.27;;;3.30;99.90;;;;;;4992705;28;20557;-81
2023/02/14 10:10:42;;;;;;;51.97;31.33;;;3.30;99.90;;;;;;4993899;28;20076;-81
2023/02/14 10:13:30;;;;;;;46.50;26.10;;;3.30;99.90;;;;;;4993943;28;20030;-81
2023/02/14 10:16:28;;;;;;;41.90;22.90;;;3.40;99.90;;;;;;4992479;28;20120;-81
2023/02/14 10:18:56;;;;;;;55.00;32.97;;;3.40;99.90;;;;;;4994332;28;20030;-81
2023/02/14 10:21:32;;;;;;;45.13;26.73;;;3.50;99.90;;;;;;4993764;28;20022;-81
2023/02/14 10:24:12;;;;;;;37.80;23.67;;;3.50;99.90;;;;;;4993787;28;20080;-81
2023/02/14 10:26:41;;;;;;;46.95;29.10;;;3.50;99.90;;;;;;4992543;28;20565;-82
2023/02/14 10:29:13;;;;;;;38.83;23.00;;;3.50;99.90;;;;;;4993642;28;20031;-81
2023/02/14 10:31:55;;;;;;;28.17;15.20;;;3.50;99.90;;;;;;4992738;28;20388;-81
2023/02/14 10:34:48;;;;;;;25.70;13.40;;;3.60;99.90;;;;;;4993629;28;20124;-81
2023/02/14 10:37:35;;;;;;;26.38;16.67;;;3.50;99.90;;;;;;4991988;28;20274;-81
2023/02/14 10:40:19;;;;;;;26.35;16.63;;;3.50;99.90;;;;;;4992653;28;20080;-81
2023/02/14 10:43:09;;;;;;;22.30;13.77;;;3.60;99.90;;;;;;4993269;28;20073;-81
2023/02/14 10:45:42;;;;;;;28.85;17.10;;;3.50;99.90;;;;;;4994128;28;20104;-81
2023/02/14 10:48:42;;;;;;;26.75;15.30;;;3.60;99.90;;;;;;4996333;28;20361;-81
2023/02/14 10:51:16;;;;;;;22.88;13.40;;;3.60;99.90;;;;;;4995931;28;20096;-81
2023/02/14 10:54:14;;;;;;;22.65;14.57;;;3.60;99.90;;;;;;4997615;28;20499;-81
2023/02/14 10:56:45;;;;;;;23.95;16.35;;;3.70;99.90;;;;;;4997663;28;20033;-81
2023/02/14 10:59:26;;;;;;;23.42;13.55;;;3.70;99.90;;;;;;4996522;28;20384;-81
2023/02/14 11:01:53;;;;;;;22.13;14.23;;;3.70;99.90;;;;;;4997402;28;20356;-82
2023/02/14 11:04:22;;;;;;;21.13;12.85;;;3.80;99.90;;;;;;5012628;28;20065;-81
2023/02/14 11:06:49;;;;;;;19.45;12.75;;;3.80;99.90;;;;;;4997393;28;20022;-81
2023/02/14 11:09:16;;;;;;;21.45;12.55;;;3.80;99.90;;;;;;4997264;28;20026;-81
2023/02/14 11:11:48;;;;;;;22.65;12.20;;;3.80;99.90;;;;;;4996142;28;20034;-81
2023/02/14 11:14:22;;;;;;;20.95;12.50;;;3.90;99.90;;;;;;4997393;28;20106;-81
2023/02/14 11:16:50;;;;;;;19.60;11.75;;;3.80;99.90;;;;;;4995624;28;20019;-81
2023/02/14 11:19:26;;;;;;;19.75;13.65;;;3.80;99.90;;;;;;4996966;28;20030;-82
2023/02/14 11:21:54;;;;;;;22.70;12.93;;;3.80;99.90;;;;;;4995960;28;20045;-82
2023/02/14 11:24:27;;;;;;;17.38;13.35;;;3.80;99.90;;;;;;5005778;28;20030;-81
2023/02/14 11:26:56;;;;;;;21.67;13.10;;;3.90;99.90;;;;;;5014006;28;20121;-81
2023/02/14 11:29:27;;;;;;;19.20;12.02;;;3.90;99.90;;;;;;5015382;28;20026;-81
2023/02/14 11:31:53;;;;;;;17.23;11.38;;;4.00;99.90;;;;;;5015372;28;20046;-81
2023/02/14 11:34:32;;;;;;;18.55;12.20;;;4.00;99.90;;;;;;5015203;28;20033;-81
2023/02/14 11:36:59;;;;;;;19.80;13.10;;;4.00;99.90;;;;;;5014389;28;20061;-81
2023/02/14 11:39:36;;;;;;;19.88;13.70;;;4.00;99.90;;;;;;5015339;28;20057;-81
2023/02/14 11:42:04;;;;;;;19.13;12.60;;;4.00;99.90;;;;;;5013897;28;20061;-81
2023/02/14 11:44:33;;;;;;;19.02;11.70;;;4.00;99.90;;;;;;5013902;28;20025;-82
2023/02/14 11:47:17;;;;;;;23.83;12.80;;;4.10;99.90;;;;;;5011459;28;20472;-81
2023/02/14 11:49:55;;;;;;;16.88;11.38;;;4.10;99.90;;;;;;5013438;28;20030;-82
2023/02/14 11:52:25;;;;;;;17.95;12.68;;;4.00;99.90;;;;;;5014976;28;20438;-81
2023/02/14 11:54:52;;;;;;;18.67;12.38;;;4.10;99.90;;;;;;5014887;28;20093;-82
2023/02/14 11:57:17;;;;;;;16.92;12.02;;;4.00;99.90;;;;;;5013410;28;20502;-82
2023/02/14 11:59:46;;;;;;;15.68;11.02;;;4.10;99.90;;;;;;5012937;28;20026;-82
2023/02/14 12:02:28;;;;;;;17.10;11.48;;;4.20;99.90;;;;;;5014596;28;20071;-82
2023/02/14 12:05:01;;;;;;;13.70;10.90;;;4.20;99.90;;;;;;5014302;28;20025;-82
2023/02/14 12:07:35;;;;;;;16.73;10.80;;;4.20;99.90;;;;;;5015001;28;20431;-83
2023/02/14 12:10:16;;;;;;;16.85;11.60;;;4.10;99.90;;;;;;5014931;28;20045;-82
2023/02/14 12:12:53;;;;;;;18.45;12.23;;;4.10;99.90;;;;;;5013478;28;20380;-81
2023/02/14 12:15:39;;;;;;;55.08;24.15;;;4.20;99.90;;;;;;5014448;28;20526;-81
2023/02/14 12:18:29;;;;;;;19.27;12.90;;;4.20;99.90;;;;;;5013228;28;20030;-82
2023/02/14 12:21:29;;;;;;;14.73;10.35;;;4.20;99.90;;;;;;5013099;28;20050;-82
2023/02/14 12:24:14;;;;;;;17.08;10.95;;;4.10;99.90;;;;;;5012724;28;20117;-83
2023/02/14 12:26:58;;;;;;;15.90;11.60;;;4.10;99.90;;;;;;5014264;28;20120;-82
2023/02/14 12:29:28;;;;;;;17.63;11.90;;;4.10;99.90;;;;;;5012063;28;20152;-81
2023/02/14 12:31:58;;;;;;;15.63;10.98;;;4.10;99.90;;;;;;5010533;28;20077;-83
2023/02/14 12:34:24;;;;;;;15.07;10.65;;;4.10;99.90;;;;;;5010324;28;20038;-83
2023/02/14 12:37:00;;;;;;;18.58;11.10;;;4.00;99.90;;;;;;5010930;28;20056;-82
2023/02/14 12:39:31;;;;;;;19.35;12.40;;;3.90;99.90;;;;;;5012249;28;20014;-82
2023/02/14 12:42:03;;;;;;;26.65;15.52;;;4.00;99.90;;;;;;5009529;28;20038;-82
2023/02/14 12:44:49;;;;;;;20.75;11.95;;;4.00;99.90;;;;;;5009603;28;20080;-83
2023/02/14 12:47:18;;;;;;;29.35;16.92;;;4.00;99.90;;;;;;5010711;28;20058;-82
2023/02/14 12:50:19;;;;;;;18.25;11.38;;;4.00;99.90;;;;;;5012909;28;20034;-82
2023/02/14 12:52:47;;;;;;;49.53;18.73;;;4.10;99.90;;;;;;5007472;28;20471;-81
2023/02/14 12:55:29;;;;;;;16.02;11.02;;;4.20;99.90;;;;;;5010882;28;20088;-82
2023/02/14 12:58:28;;;;;;;43.97;17.65;;;4.20;99.90;;;;;;5011542;28;20092;-82
2023/02/14 13:00:57;;;;;;;20.75;12.57;;;4.20;99.90;;;;;;5009646;28;20116;-81
2023/02/14 13:03:48;;;;;;;27.70;14.02;;;4.30;99.90;;;;;;5014555;28;20033;-82
2023/02/14 13:06:33;;;;;;;24.85;12.57;;;4.30;99.90;;;;;;5010227;28;20083;-83
2023/02/14 13:09:08;;;;;;;15.10;11.15;;;4.30;99.90;;;;;;5012053;28;20033;-82
2023/02/14 13:11:43;;;;;;;19.23;11.20;;;4.30;99.90;;;;;;5010548;28;20551;-81